createdAt,value
2018-07-11T00:01:24.844Z,15.90
2018-07-11T00:06:24.659Z,15.80
2018-07-11T00:08:53.646Z,15.70
2018-07-11T00:11:22.663Z,15.60
2018-07-11T00:13:51.707Z,15.60
2018-07-11T00:16:20.722Z,15.50
2018-07-11T00:18:49.735Z,15.50
2018-07-11T00:21:18.735Z,15.50
2018-07-11T00:26:16.423Z,15.30
2018-07-11T00:28:45.422Z,15.30
2018-07-11T00:31:14.398Z,15.20
2018-07-11T00:33:43.395Z,15.10
2018-07-11T00:36:12.504Z,15.10
2018-07-11T00:38:41.487Z,15.10
2018-07-11T00:41:10.460Z,15.10
2018-07-11T00:43:39.765Z,15.10
2018-07-11T00:48:37.412Z,15.10
2018-07-11T00:51:06.365Z,15.10
2018-07-11T00:56:05.014Z,15.10
2018-07-11T00:58:36.721Z,15.10
2018-07-11T01:01:07.640Z,15.40
2018-07-11T01:03:39.782Z,15.50
2018-07-11T01:08:39.778Z,15.60
2018-07-11T01:14:16.139Z,15.50
2018-07-11T01:19:14.923Z,15.40
2018-07-11T01:21:43.939Z,15.30
2018-07-11T01:24:13.055Z,15.30
2018-07-11T01:26:42.097Z,15.30
2018-07-11T01:29:11.083Z,15.30
2018-07-11T01:34:08.758Z,15.50
2018-07-11T01:36:37.791Z,15.60
2018-07-11T01:39:06.895Z,15.70
2018-07-11T01:46:40.724Z,15.90
2018-07-11T01:49:09.768Z,15.90
2018-07-11T01:54:13.078Z,16.10
2018-07-11T01:56:42.071Z,16.10
2018-07-11T01:59:11.091Z,16.20
2018-07-11T02:04:09.948Z,16.10
2018-07-11T02:06:39.096Z,16.10
2018-07-11T02:09:08.163Z,16.10
2018-07-11T02:11:37.221Z,16.10
2018-07-11T02:14:06.991Z,16.10
2018-07-11T02:16:36.772Z,16.10
2018-07-11T02:19:06.412Z,16.00
2018-07-11T02:21:35.469Z,16.00
2018-07-11T02:24:04.723Z,16.00
2018-07-11T02:26:33.767Z,16.10
2018-07-11T02:29:02.743Z,16.20
2018-07-11T02:31:32.112Z,16.20
2018-07-11T02:34:01.088Z,16.40
2018-07-11T02:36:30.087Z,16.40
2018-07-11T02:38:59.088Z,16.50
2018-07-11T02:41:28.023Z,16.50
2018-07-11T02:43:57.009Z,16.60
2018-07-11T02:46:31.244Z,16.60
2018-07-11T02:49:00.209Z,16.60
2018-07-11T02:51:29.240Z,16.50
2018-07-11T02:53:58.231Z,16.40
2018-07-11T02:56:27.196Z,16.40
2018-07-11T02:58:56.232Z,16.40
2018-07-11T03:01:25.277Z,16.40
2018-07-11T03:03:54.362Z,16.40
2018-07-11T03:06:23.407Z,16.50
2018-07-11T03:11:21.291Z,16.70
2018-07-11T03:13:50.387Z,16.70
2018-07-11T03:16:19.400Z,16.70
2018-07-11T03:18:48.421Z,16.70
2018-07-11T03:21:17.420Z,16.70
2018-07-11T03:23:46.386Z,16.80
2018-07-11T03:28:43.966Z,16.80
2018-07-11T03:31:12.979Z,16.80
2018-07-11T03:33:41.971Z,16.80
2018-07-11T03:38:39.635Z,17.00
2018-07-11T03:41:08.745Z,17.10
2018-07-11T03:43:37.723Z,17.10
2018-07-11T03:46:06.868Z,17.00
2018-07-11T03:48:35.995Z,17.10
2018-07-11T03:53:33.897Z,17.20
2018-07-11T03:58:31.665Z,17.40
2018-07-11T04:01:00.681Z,17.40
2018-07-11T04:03:30.075Z,17.40
2018-07-11T04:05:59.080Z,17.40
2018-07-11T04:08:28.027Z,17.30
2018-07-11T04:10:57.027Z,17.30
2018-07-11T04:13:26.152Z,17.40
2018-07-11T04:15:55.189Z,17.40
2018-07-11T04:18:29.490Z,17.40
2018-07-11T04:20:59.817Z,17.30
2018-07-11T04:23:29.116Z,17.30
2018-07-11T04:25:59.602Z,17.40
2018-07-11T04:28:29.588Z,17.40
2018-07-11T04:30:58.584Z,17.40
2018-07-11T04:33:27.754Z,17.40
2018-07-11T04:35:56.920Z,17.40
2018-07-11T04:38:26.407Z,17.50
2018-07-11T04:40:55.628Z,17.60
2018-07-11T04:43:27.013Z,17.60
2018-07-11T04:45:56.532Z,17.60
2018-07-11T04:48:25.596Z,17.50
2018-07-11T04:50:54.648Z,17.50
2018-07-11T04:53:25.467Z,17.40
2018-07-11T04:56:02.447Z,17.40
2018-07-11T04:58:32.160Z,17.40
2018-07-11T05:01:01.444Z,17.50
2018-07-11T05:05:59.212Z,17.50
2018-07-11T05:08:28.284Z,17.60
2018-07-11T05:10:57.453Z,17.60
2018-07-11T05:13:26.527Z,17.80
2018-07-11T05:15:55.591Z,17.70
2018-07-11T05:18:24.715Z,17.70
2018-07-11T05:20:53.771Z,17.60
2018-07-11T05:25:51.533Z,17.80
2018-07-11T05:28:20.547Z,17.90
2018-07-11T05:30:49.552Z,17.80
2018-07-11T05:33:18.515Z,17.70
2018-07-11T05:35:47.512Z,17.70
2018-07-11T05:38:16.649Z,17.80
2018-07-11T05:40:45.711Z,17.80
2018-07-11T05:43:14.823Z,17.80
2018-07-11T05:45:43.844Z,17.90
2018-07-11T05:48:13.044Z,18.10
2018-07-11T05:50:42.039Z,18.10
2018-07-11T05:53:11.184Z,18.00
2018-07-11T05:55:40.235Z,18.10
2018-07-11T05:58:09.252Z,18.20
2018-07-11T06:00:38.299Z,18.10
2018-07-11T06:03:07.235Z,18.10
2018-07-11T06:08:04.911Z,18.20
2018-07-11T06:10:33.960Z,18.20
2018-07-11T06:13:03.013Z,18.20
2018-07-11T06:15:32.076Z,18.30
2018-07-11T06:18:01.111Z,18.30
2018-07-11T06:20:30.370Z,18.50
2018-07-11T06:22:59.503Z,18.60
2018-07-11T06:25:28.623Z,18.70
2018-07-11T06:27:57.635Z,18.70
2018-07-11T06:30:26.565Z,18.70
2018-07-11T06:32:55.616Z,18.70
2018-07-11T06:35:24.652Z,18.70
2018-07-11T06:37:53.706Z,18.70
2018-07-11T06:40:22.639Z,18.80
2018-07-11T06:42:51.656Z,18.90
2018-07-11T06:50:18.131Z,18.90
2018-07-11T06:52:47.135Z,18.80
2018-07-11T06:55:16.203Z,18.80
2018-07-11T06:57:45.179Z,18.90
2018-07-11T07:00:14.246Z,19.00
2018-07-11T07:02:43.287Z,19.00
2018-07-11T07:05:12.252Z,18.90
2018-07-11T07:07:41.231Z,18.90
2018-07-11T07:10:10.292Z,19.00
2018-07-11T07:15:08.007Z,19.00
2018-07-11T07:17:36.999Z,18.90
2018-07-11T07:22:35.316Z,19.00
2018-07-11T07:25:04.384Z,18.90
2018-07-11T07:27:33.628Z,18.90
2018-07-11T07:30:02.647Z,18.80
2018-07-11T07:32:31.683Z,18.90
2018-07-11T07:35:00.716Z,18.90
2018-07-11T07:37:29.704Z,18.90
2018-07-11T07:39:58.680Z,18.80
2018-07-11T07:42:27.744Z,18.80
2018-07-11T07:44:56.720Z,18.50
2018-07-11T07:52:28.928Z,17.70
2018-07-11T07:54:58.029Z,17.60
2018-07-11T07:57:28.068Z,17.60
2018-07-11T07:59:57.220Z,17.60
2018-07-11T08:02:26.261Z,17.70
2018-07-11T08:04:55.931Z,17.80
2018-07-11T08:07:24.939Z,17.80
2018-07-11T08:09:53.971Z,17.90
2018-07-11T08:12:22.966Z,17.90
2018-07-11T08:14:51.956Z,17.90
2018-07-11T08:17:20.976Z,17.90
2018-07-11T08:19:49.971Z,17.80
2018-07-11T08:22:41.077Z,17.70
2018-07-11T08:27:55.632Z,17.60
2018-07-11T08:30:51.979Z,17.70
2018-07-11T08:33:36.778Z,17.70
2018-07-11T08:38:50.890Z,17.80
2018-07-11T08:44:33.703Z,17.90
2018-07-11T08:47:11.445Z,18.20
2018-07-11T08:49:57.051Z,18.20
2018-07-11T08:52:38.006Z,18.30
2018-07-11T08:56:17.215Z,18.30
2018-07-11T08:59:28.111Z,18.40
2018-07-11T09:02:13.245Z,18.40
2018-07-11T09:04:53.860Z,18.50
2018-07-11T09:09:42.519Z,18.40
2018-07-11T09:12:23.683Z,18.40
2018-07-11T09:20:02.861Z,18.30
2018-07-11T09:22:40.266Z,18.30
2018-07-11T09:27:37.901Z,17.80
2018-07-11T09:30:07.291Z,17.50
2018-07-11T09:32:36.388Z,17.40
2018-07-11T09:37:34.205Z,17.30
2018-07-11T09:40:03.178Z,17.40
2018-07-11T09:42:32.258Z,17.40
2018-07-11T09:45:01.275Z,17.30
2018-07-11T09:47:30.438Z,17.40
2018-07-11T09:49:59.580Z,17.50
2018-07-11T09:52:28.584Z,17.50
2018-07-11T09:54:57.828Z,17.60
2018-07-11T09:59:56.681Z,17.70
2018-07-11T10:02:25.928Z,18.00
2018-07-11T10:04:54.992Z,17.90
2018-07-11T10:07:24.252Z,17.90
2018-07-11T10:09:53.288Z,18.00
2018-07-11T10:12:22.290Z,18.00
2018-07-11T10:14:51.252Z,18.20
2018-07-11T10:17:20.737Z,18.40
2018-07-11T10:19:49.736Z,18.20
2018-07-11T10:22:18.675Z,18.20
2018-07-11T10:24:47.688Z,18.10
2018-07-11T10:27:16.999Z,18.10
2018-07-11T10:29:46.130Z,18.30
2018-07-11T10:34:44.741Z,18.30
2018-07-11T10:37:14.273Z,18.20
2018-07-11T10:39:43.311Z,18.30
2018-07-11T10:42:12.340Z,18.40
2018-07-11T10:44:41.367Z,18.50
2018-07-11T10:49:42.847Z,18.80
2018-07-11T10:52:11.843Z,18.90
2018-07-11T10:54:40.841Z,18.60
2018-07-11T10:57:09.855Z,18.50
2018-07-11T11:04:36.267Z,19.00
2018-07-11T11:07:05.949Z,19.20
2018-07-11T11:09:34.936Z,19.60
2018-07-11T11:12:03.973Z,19.50
2018-07-11T11:14:33.055Z,19.50
2018-07-11T11:17:02.106Z,19.60
2018-07-11T11:19:32.156Z,19.70
2018-07-11T11:22:01.527Z,19.60
2018-07-11T11:29:27.809Z,19.70
2018-07-11T11:31:56.836Z,19.70
2018-07-11T11:34:25.796Z,19.80
2018-07-11T11:36:54.960Z,19.90
2018-07-11T11:39:24.272Z,20.00
2018-07-11T11:41:53.507Z,20.30
2018-07-11T11:44:22.604Z,20.50
2018-07-11T11:46:51.848Z,20.90
2018-07-11T11:49:21.128Z,21.10
2018-07-11T11:51:50.134Z,21.20
2018-07-11T11:54:19.100Z,21.30
2018-07-11T11:56:48.123Z,21.40
2018-07-11T11:59:17.107Z,21.80
2018-07-11T12:01:46.325Z,21.80
2018-07-11T12:04:15.325Z,21.90
2018-07-11T12:06:44.405Z,22.00
2018-07-11T12:11:42.164Z,22.40
2018-07-11T12:14:11.193Z,22.60
2018-07-11T12:16:40.290Z,22.90
2018-07-11T12:19:09.408Z,23.20
2018-07-11T12:21:38.475Z,23.20
2018-07-11T12:24:07.515Z,22.90
2018-07-11T12:26:36.456Z,23.00
2018-07-11T12:29:05.448Z,22.90
2018-07-11T12:31:34.444Z,22.90
2018-07-11T12:34:03.509Z,22.80
2018-07-11T12:36:32.580Z,22.50
2018-07-11T12:41:30.486Z,22.10
2018-07-11T12:43:59.619Z,21.80
2018-07-11T12:46:28.632Z,21.50
2018-07-11T12:49:05.599Z,21.60
2018-07-11T12:51:34.930Z,21.60
2018-07-11T12:54:04.744Z,21.80
2018-07-11T12:56:33.712Z,22.00
2018-07-11T12:59:02.986Z,22.10
2018-07-11T13:01:31.979Z,22.20
2018-07-11T13:04:01.598Z,22.30
2018-07-11T13:06:30.632Z,22.30
2018-07-11T13:08:59.636Z,22.00
2018-07-11T13:11:28.686Z,22.00
2018-07-11T13:13:57.694Z,22.00
2018-07-11T13:16:26.686Z,22.00
2018-07-11T13:18:55.673Z,21.90
2018-07-11T13:23:53.570Z,21.90
2018-07-11T13:26:22.545Z,22.10
2018-07-11T13:28:51.569Z,22.10
2018-07-11T13:31:20.531Z,22.20
2018-07-11T13:33:49.528Z,22.10
2018-07-11T13:36:18.569Z,22.00
2018-07-11T13:41:16.523Z,22.10
2018-07-11T13:43:45.526Z,22.20
2018-07-11T13:46:14.632Z,22.10
2018-07-11T13:48:43.639Z,22.10
2018-07-11T13:51:12.611Z,22.10
2018-07-11T13:53:41.899Z,22.20
2018-07-11T13:56:11.015Z,22.40
2018-07-11T13:58:41.903Z,22.40
2018-07-11T14:01:11.201Z,22.50
2018-07-11T14:06:09.017Z,22.60
2018-07-11T14:08:38.170Z,22.60
2018-07-11T14:11:07.306Z,22.50
2018-07-11T14:13:36.318Z,22.60
2018-07-11T14:18:34.203Z,22.80
2018-07-11T14:26:05.248Z,22.80
2018-07-11T14:28:34.624Z,22.90
2018-07-11T14:31:04.560Z,22.70
2018-07-11T14:33:34.535Z,22.80
2018-07-11T14:36:03.610Z,22.90
2018-07-11T14:38:32.596Z,22.90
2018-07-11T14:41:02.932Z,22.70
2018-07-11T14:43:33.036Z,22.60
2018-07-11T14:46:02.066Z,22.60
2018-07-11T14:48:31.116Z,22.50
2018-07-11T14:51:00.280Z,22.00
2018-07-11T14:53:30.449Z,22.00
2018-07-11T14:55:59.656Z,22.10
2018-07-11T14:58:29.004Z,22.20
2018-07-11T15:03:26.795Z,22.10
2018-07-11T15:05:56.867Z,21.90
2018-07-11T15:08:26.264Z,22.00
2018-07-11T15:10:55.204Z,22.00
2018-07-11T15:13:24.563Z,21.90
2018-07-11T15:15:53.659Z,22.00
2018-07-11T15:18:22.689Z,22.00
2018-07-11T15:20:51.803Z,22.10
2018-07-11T15:23:21.109Z,21.80
2018-07-11T15:25:50.164Z,21.70
2018-07-11T15:28:19.263Z,21.50
2018-07-11T15:30:48.582Z,21.40
2018-07-11T15:33:18.825Z,21.40
2018-07-11T15:38:16.735Z,21.20
2018-07-11T15:43:14.496Z,21.20
2018-07-11T15:45:43.488Z,21.20
2018-07-11T15:48:12.601Z,21.20
2018-07-11T15:50:41.775Z,21.20
2018-07-11T15:55:39.707Z,21.20
2018-07-11T16:00:40.695Z,21.10
2018-07-11T16:03:12.131Z,21.30
2018-07-11T16:05:43.042Z,21.30
2018-07-11T16:08:16.555Z,21.40
2018-07-11T16:13:16.549Z,21.30
2018-07-11T16:15:46.020Z,21.30
2018-07-11T16:18:15.048Z,21.40
2018-07-11T16:20:44.086Z,21.30
2018-07-11T16:23:13.420Z,21.20
2018-07-11T16:25:43.523Z,21.40
2018-07-11T16:28:12.592Z,21.30
2018-07-11T16:30:41.567Z,21.20
2018-07-11T16:35:39.214Z,21.10
2018-07-11T16:38:08.219Z,21.10
2018-07-11T16:40:37.299Z,21.00
2018-07-11T16:43:06.300Z,20.90
2018-07-11T16:45:35.313Z,20.80
2018-07-11T16:48:04.285Z,20.90
2018-07-11T16:53:02.145Z,20.80
2018-07-11T16:55:33.262Z,20.90
2018-07-11T16:58:02.297Z,20.90
2018-07-11T17:00:32.989Z,20.80
2018-07-11T17:05:47.093Z,20.60
2018-07-11T17:08:22.534Z,20.50
2018-07-11T17:10:51.557Z,20.60
2018-07-11T17:13:22.692Z,20.50
2018-07-11T17:20:56.369Z,20.40
2018-07-11T17:23:25.431Z,20.40
2018-07-11T17:25:54.506Z,20.40
2018-07-11T17:28:23.522Z,20.40
2018-07-11T17:30:53.488Z,20.40
2018-07-11T17:35:52.746Z,20.20
2018-07-11T17:38:24.804Z,20.10
2018-07-11T17:45:55.620Z,20.00
2018-07-11T17:48:36.083Z,20.00
2018-07-11T17:56:11.128Z,20.00
2018-07-11T17:58:49.942Z,20.00
2018-07-11T18:01:19.084Z,20.10
2018-07-11T18:03:52.681Z,20.00
2018-07-11T18:06:28.223Z,19.90
2018-07-11T18:09:05.992Z,19.90
2018-07-11T18:11:50.203Z,19.90
2018-07-11T18:14:33.468Z,19.80
2018-07-11T18:17:17.054Z,19.80
2018-07-11T18:19:55.344Z,19.70
2018-07-11T18:22:30.525Z,19.70
2018-07-11T18:25:16.839Z,19.70
2018-07-11T18:27:58.667Z,19.70
2018-07-11T18:33:21.785Z,19.80
2018-07-11T18:36:02.352Z,19.80
2018-07-11T18:41:05.588Z,19.80
2018-07-11T18:43:46.586Z,19.80
2018-07-11T18:46:34.459Z,19.80
2018-07-11T18:49:16.046Z,19.70
2018-07-11T18:52:58.351Z,19.60
2018-07-11T18:55:35.700Z,19.50
2018-07-11T18:59:17.745Z,19.40
2018-07-11T19:04:33.200Z,19.30
2018-07-11T19:07:12.368Z,19.30
2018-07-11T19:09:50.634Z,19.30
2018-07-11T19:12:30.317Z,19.30
2018-07-11T19:15:16.222Z,19.30
2018-07-11T19:18:05.621Z,19.20
2018-07-11T19:21:46.460Z,19.10
2018-07-11T19:28:03.367Z,19.10
2018-07-11T19:30:43.819Z,19.00
2018-07-11T19:33:20.352Z,19.10
2018-07-11T19:36:16.267Z,19.10
2018-07-11T19:38:57.620Z,19.10
2018-07-11T19:41:35.546Z,19.10
2018-07-11T19:44:25.773Z,19.10
2018-07-11T19:47:06.091Z,19.10
2018-07-11T19:52:22.107Z,19.10
2018-07-11T19:57:25.607Z,19.00
2018-07-11T19:59:54.743Z,19.00
2018-07-11T20:02:23.769Z,19.00
2018-07-11T20:04:52.933Z,19.00
2018-07-11T20:07:21.969Z,19.00
2018-07-11T20:12:20.037Z,19.00
2018-07-11T20:14:50.095Z,18.90
2018-07-11T20:17:19.168Z,18.90
2018-07-11T20:19:48.228Z,18.80
2018-07-11T20:22:17.791Z,18.80
2018-07-11T20:24:47.008Z,18.70
2018-07-11T20:27:16.178Z,18.70
2018-07-11T20:29:45.284Z,18.60
2018-07-11T20:32:14.924Z,18.50
2018-07-11T20:34:44.552Z,18.40
2018-07-11T20:37:13.571Z,18.40
2018-07-11T20:39:42.710Z,18.30
2018-07-11T20:42:12.027Z,18.20
2018-07-11T20:44:41.983Z,18.20
2018-07-11T20:47:11.799Z,18.10
2018-07-11T20:49:40.821Z,18.00
2018-07-11T20:52:09.881Z,17.90
2018-07-11T20:54:38.919Z,17.80
2018-07-11T20:57:07.960Z,17.80
2018-07-11T20:59:48.491Z,17.70
2018-07-11T21:02:29.054Z,17.60
2018-07-11T21:09:21.240Z,17.50
2018-07-11T21:12:19.195Z,17.50
2018-07-11T21:15:00.543Z,17.30
2018-07-11T21:18:56.746Z,17.20
2018-07-11T21:23:54.730Z,17.00
2018-07-11T21:28:52.482Z,16.90
2018-07-11T21:31:21.551Z,16.90
2018-07-11T21:33:50.568Z,16.80
2018-07-11T21:36:19.640Z,16.80
2018-07-11T21:38:49.331Z,16.70
2018-07-11T21:41:18.340Z,16.70
2018-07-11T21:43:47.328Z,16.70
2018-07-11T21:46:16.293Z,16.60
2018-07-11T21:51:14.387Z,16.60
2018-07-11T21:56:12.014Z,16.50
2018-07-11T21:58:41.073Z,16.50
2018-07-11T22:01:11.227Z,16.50
2018-07-11T22:03:40.269Z,16.50
2018-07-11T22:06:09.312Z,16.50
2018-07-11T22:08:38.320Z,16.50
2018-07-11T22:11:07.315Z,16.40
2018-07-11T22:13:37.264Z,16.40
2018-07-11T22:16:06.256Z,16.40
2018-07-11T22:18:39.445Z,16.40
2018-07-11T22:21:08.694Z,16.40
2018-07-11T22:23:36.607Z,16.40
2018-07-11T22:26:04.446Z,16.40
2018-07-11T22:28:32.255Z,16.40
2018-07-11T22:31:00.097Z,16.40
2018-07-11T22:33:28.015Z,16.40
2018-07-11T22:35:55.975Z,16.40
2018-07-11T22:38:23.788Z,16.50
2018-07-11T22:43:19.599Z,16.50
2018-07-11T22:45:47.447Z,16.60
2018-07-11T22:48:15.652Z,16.60
2018-07-11T22:50:43.485Z,16.60
2018-07-11T22:55:39.290Z,16.70
2018-07-11T22:58:07.075Z,16.70
2018-07-11T23:00:34.878Z,16.80
2018-07-11T23:07:58.688Z,16.80
2018-07-11T23:10:26.511Z,16.90
2018-07-11T23:12:54.335Z,16.90
2018-07-11T23:15:22.175Z,16.90
2018-07-11T23:17:49.923Z,16.90
2018-07-11T23:20:17.742Z,16.90
2018-07-11T23:22:45.543Z,16.90
2018-07-11T23:25:13.360Z,17.00
2018-07-11T23:27:41.235Z,17.00
2018-07-11T23:30:09.224Z,17.00
2018-07-11T23:32:37.102Z,17.10
2018-07-11T23:35:04.948Z,17.10
2018-07-11T23:40:00.692Z,17.10
2018-07-11T23:44:56.519Z,17.20
2018-07-11T23:47:24.282Z,17.20
2018-07-11T23:49:52.120Z,17.20
2018-07-11T23:52:19.907Z,17.30
2018-07-11T23:54:47.719Z,17.30
2018-07-11T23:57:15.589Z,17.30
2018-07-11T23:59:43.472Z,17.40
